sensor_id;sensor_type;location;lat;lon;timestamp;pressure;altitude;pressure_sealevel;temperature;humidity
54822;BME280;41299;43.546;16.426;2022-07-21T00:02:28;101613.38;;;24.58;86.74
54822;BME280;41299;43.546;16.426;2022-07-21T00:04:54;101604.00;;;24.51;86.93
54822;BME280;41299;43.546;16.426;2022-07-21T00:07:19;101600.91;;;24.40;88.41
54822;BME280;41299;43.546;16.426;2022-07-21T00:09:44;101607.91;;;24.41;86.44
54822;BME280;41299;43.546;16.426;2022-07-21T00:12:10;101598.88;;;24.46;87.38
54822;BME280;41299;43.546;16.426;2022-07-21T00:14:35;101597.41;;;24.39;90.03
54822;BME280;41299;43.546;16.426;2022-07-21T00:17:01;101606.31;;;24.37;89.33
54822;BME280;41299;43.546;16.426;2022-07-21T00:19:26;101600.28;;;24.33;88.30
54822;BME280;41299;43.546;16.426;2022-07-21T00:21:52;101602.59;;;24.42;85.35
54822;BME280;41299;43.546;16.426;2022-07-21T00:24:17;101601.13;;;24.33;94.10
54822;BME280;41299;43.546;16.426;2022-07-21T00:26:43;101610.66;;;24.38;87.46
54822;BME280;41299;43.546;16.426;2022-07-21T00:29:08;101611.81;;;24.30;95.22
54822;BME280;41299;43.546;16.426;2022-07-21T00:31:33;101611.13;;;24.25;86.52
54822;BME280;41299;43.546;16.426;2022-07-21T00:33:59;101614.63;;;24.26;85.53
54822;BME280;41299;43.546;16.426;2022-07-21T00:36:24;101617.44;;;24.21;85.26
54822;BME280;41299;43.546;16.426;2022-07-21T00:38:50;101618.06;;;24.28;84.72
54822;BME280;41299;43.546;16.426;2022-07-21T00:41:15;101622.13;;;24.37;83.68
54822;BME280;41299;43.546;16.426;2022-07-21T00:43:41;101624.75;;;24.37;85.11
54822;BME280;41299;43.546;16.426;2022-07-21T00:46:06;101624.75;;;24.37;84.87
54822;BME280;41299;43.546;16.426;2022-07-21T00:48:32;101630.03;;;24.37;85.09
54822;BME280;41299;43.546;16.426;2022-07-21T00:50:58;101629.09;;;24.38;88.03
54822;BME280;41299;43.546;16.426;2022-07-21T00:53:24;101632.91;;;24.30;94.76
54822;BME280;41299;43.546;16.426;2022-07-21T00:55:49;101627.03;;;24.22;94.78
54822;BME280;41299;43.546;16.426;2022-07-21T00:58:15;101622.88;;;24.16;96.41
54822;BME280;41299;43.546;16.426;2022-07-21T01:00:40;101624.72;;;24.14;100.00
54822;BME280;41299;43.546;16.426;2022-07-21T01:03:06;101621.16;;;24.15;100.00
54822;BME280;41299;43.546;16.426;2022-07-21T01:05:32;101625.22;;;24.24;100.00
54822;BME280;41299;43.546;16.426;2022-07-21T01:07:57;101627.00;;;24.24;100.00
54822;BME280;41299;43.546;16.426;2022-07-21T01:10:28;101631.25;;;24.28;100.00
54822;BME280;41299;43.546;16.426;2022-07-21T01:12:54;101632.13;;;24.28;100.00
54822;BME280;41299;43.546;16.426;2022-07-21T01:15:21;101636.56;;;24.26;100.00
54822;BME280;41299;43.546;16.426;2022-07-21T01:17:47;101629.91;;;24.16;100.00
54822;BME280;41299;43.546;16.426;2022-07-21T01:20:16;101633.44;;;24.16;100.00
54822;BME280;41299;43.546;16.426;2022-07-21T01:22:43;101635.50;;;24.08;100.00
54822;BME280;41299;43.546;16.426;2022-07-21T01:25:09;101639.06;;;24.05;100.00
54822;BME280;41299;43.546;16.426;2022-07-21T01:27:35;101637.09;;;24.12;100.00
54822;BME280;41299;43.546;16.426;2022-07-21T01:30:04;101635.41;;;24.10;100.00
54822;BME280;41299;43.546;16.426;2022-07-21T01:32:29;101638.25;;;24.03;100.00
54822;BME280;41299;43.546;16.426;2022-07-21T01:34:55;101632.88;;;24.08;100.00
54822;BME280;41299;43.546;16.426;2022-07-21T01:37:27;101639.91;;;24.08;100.00
54822;BME280;41299;43.546;16.426;2022-07-21T01:39:53;101638.06;;;24.10;100.00
54822;BME280;41299;43.546;16.426;2022-07-21T01:42:37;101633.84;;;24.04;100.00
54822;BME280;41299;43.546;16.426;2022-07-21T01:45:04;101641.72;;;24.05;100.00
54822;BME280;41299;43.546;16.426;2022-07-21T01:47:30;101629.50;;;24.03;100.00
54822;BME280;41299;43.546;16.426;2022-07-21T01:49:55;101639.00;;;24.07;100.00
54822;BME280;41299;43.546;16.426;2022-07-21T01:52:21;101641.63;;;24.09;100.00
54822;BME280;41299;43.546;16.426;2022-07-21T01:54:46;101633.97;;;24.01;100.00
54822;BME280;41299;43.546;16.426;2022-07-21T01:57:12;101634.13;;;23.96;100.00
54822;BME280;41299;43.546;16.426;2022-07-21T01:59:38;101630.63;;;23.96;100.00
54822;BME280;41299;43.546;16.426;2022-07-21T02:02:03;101633.34;;;23.94;100.00
54822;BME280;41299;43.546;16.426;2022-07-21T02:04:29;101624.38;;;23.98;100.00
54822;BME280;41299;43.546;16.426;2022-07-21T02:06:54;101626.09;;;23.99;100.00
54822;BME280;41299;43.546;16.426;2022-07-21T02:09:20;101632.88;;;24.06;100.00
54822;BME280;41299;43.546;16.426;2022-07-21T02:11:45;101636.63;;;23.99;100.00
54822;BME280;41299;43.546;16.426;2022-07-21T02:14:10;101637.75;;;23.93;100.00
54822;BME280;41299;43.546;16.426;2022-07-21T02:16:36;101635.28;;;23.89;100.00
54822;BME280;41299;43.546;16.426;2022-07-21T02:19:01;101643.56;;;23.78;100.00
54822;BME280;41299;43.546;16.426;2022-07-21T02:21:27;101636.47;;;23.80;100.00
54822;BME280;41299;43.546;16.426;2022-07-21T02:23:52;101637.44;;;23.77;100.00
54822;BME280;41299;43.546;16.426;2022-07-21T02:26:18;101633.09;;;23.76;100.00
54822;BME280;41299;43.546;16.426;2022-07-21T02:28:43;101631.47;;;23.72;100.00
54822;BME280;41299;43.546;16.426;2022-07-21T02:31:09;101627.38;;;23.65;100.00
54822;BME280;41299;43.546;16.426;2022-07-21T02:33:34;101625.13;;;23.52;100.00
54822;BME280;41299;43.546;16.426;2022-07-21T02:36:00;101630.13;;;23.35;100.00
54822;BME280;41299;43.546;16.426;2022-07-21T02:38:25;101632.53;;;23.41;100.00
54822;BME280;41299;43.546;16.426;2022-07-21T02:40:51;101639.66;;;23.39;100.00
54822;BME280;41299;43.546;16.426;2022-07-21T02:43:16;101636.06;;;23.42;100.00
54822;BME280;41299;43.546;16.426;2022-07-21T02:45:42;101631.66;;;23.42;100.00
54822;BME280;41299;43.546;16.426;2022-07-21T02:48:11;101633.47;;;23.40;100.00
54822;BME280;41299;43.546;16.426;2022-07-21T02:50:41;101637.22;;;23.33;100.00
54822;BME280;41299;43.546;16.426;2022-07-21T02:53:10;101625.78;;;23.34;100.00
54822;BME280;41299;43.546;16.426;2022-07-21T02:55:36;101632.34;;;23.47;100.00
54822;BME280;41299;43.546;16.426;2022-07-21T02:58:23;101626.22;;;23.47;100.00
54822;BME280;41299;43.546;16.426;2022-07-21T03:00:54;101621.31;;;23.36;100.00
54822;BME280;41299;43.546;16.426;2022-07-21T03:03:22;101621.44;;;23.33;100.00
54822;BME280;41299;43.546;16.426;2022-07-21T03:05:48;101617.00;;;23.33;100.00
54822;BME280;41299;43.546;16.426;2022-07-21T03:08:14;101618.13;;;23.26;100.00
54822;BME280;41299;43.546;16.426;2022-07-21T03:10:40;101614.72;;;23.22;100.00
54822;BME280;41299;43.546;16.426;2022-07-21T03:13:06;101614.41;;;23.06;100.00
54822;BME280;41299;43.546;16.426;2022-07-21T03:15:32;101613.13;;;22.91;100.00
54822;BME280;41299;43.546;16.426;2022-07-21T03:17:58;101617.72;;;22.84;100.00
54822;BME280;41299;43.546;16.426;2022-07-21T03:20:25;101622.81;;;22.89;100.00
54822;BME280;41299;43.546;16.426;2022-07-21T03:22:52;101624.47;;;22.93;100.00
54822;BME280;41299;43.546;16.426;2022-07-21T03:25:18;101619.94;;;22.97;100.00
54822;BME280;41299;43.546;16.426;2022-07-21T03:27:44;101623.22;;;22.77;100.00
54822;BME280;41299;43.546;16.426;2022-07-21T03:30:09;101625.13;;;22.71;100.00
54822;BME280;41299;43.546;16.426;2022-07-21T03:32:36;101620.88;;;22.67;100.00
54822;BME280;41299;43.546;16.426;2022-07-21T03:35:02;101627.88;;;22.68;100.00
54822;BME280;41299;43.546;16.426;2022-07-21T03:37:28;101630.13;;;22.81;100.00
54822;BME280;41299;43.546;16.426;2022-07-21T03:39:53;101624.66;;;22.87;100.00
54822;BME280;41299;43.546;16.426;2022-07-21T03:42:19;101634.78;;;22.99;100.00
54822;BME280;41299;43.546;16.426;2022-07-21T03:44:44;101632.31;;;22.95;100.00
54822;BME280;41299;43.546;16.426;2022-07-21T03:47:10;101627.09;;;22.93;100.00
54822;BME280;41299;43.546;16.426;2022-07-21T03:49:35;101627.03;;;22.95;100.00
54822;BME280;41299;43.546;16.426;2022-07-21T03:52:01;101627.00;;;22.96;100.00
54822;BME280;41299;43.546;16.426;2022-07-21T03:54:26;101621.78;;;22.95;100.00
54822;BME280;41299;43.546;16.426;2022-07-21T03:56:51;101632.19;;;22.98;100.00
54822;BME280;41299;43.546;16.426;2022-07-21T03:59:17;101627.00;;;22.96;100.00
54822;BME280;41299;43.546;16.426;2022-07-21T04:01:43;101622.63;;;22.95;100.00
54822;BME280;41299;43.546;16.426;2022-07-21T04:04:08;101625.25;;;22.95;100.00
54822;BME280;41299;43.546;16.426;2022-07-21T04:06:34;101621.75;;;22.96;100.00
54822;BME280;41299;43.546;16.426;2022-07-21T04:08:59;101627.59;;;23.05;100.00
54822;BME280;41299;43.546;16.426;2022-07-21T04:11:24;101628.72;;;22.97;100.00
54822;BME280;41299;43.546;16.426;2022-07-21T04:13:50;101631.75;;;22.85;100.00
54822;BME280;41299;43.546;16.426;2022-07-21T04:16:15;101633.84;;;22.73;100.00
54822;BME280;41299;43.546;16.426;2022-07-21T04:18:40;101628.59;;;22.73;100.00
54822;BME280;41299;43.546;16.426;2022-07-21T04:21:06;101630.84;;;22.86;100.00
54822;BME280;41299;43.546;16.426;2022-07-21T04:23:31;101630.13;;;22.81;100.00
54822;BME280;41299;43.546;16.426;2022-07-21T04:25:57;101636.56;;;22.70;100.00
54822;BME280;41299;43.546;16.426;2022-07-21T04:28:22;101637.53;;;22.68;100.00
54822;BME280;41299;43.546;16.426;2022-07-21T04:30:48;101638.00;;;22.81;100.00
54822;BME280;41299;43.546;16.426;2022-07-21T04:33:13;101634.25;;;22.88;100.00
54822;BME280;41299;43.546;16.426;2022-07-21T04:35:39;101640.94;;;22.98;100.00
54822;BME280;41299;43.546;16.426;2022-07-21T04:38:04;101638.31;;;22.98;100.00
54822;BME280;41299;43.546;16.426;2022-07-21T04:40:30;101641.53;;;23.07;100.00
54822;BME280;41299;43.546;16.426;2022-07-21T04:42:55;101643.09;;;23.14;100.00
54822;BME280;41299;43.546;16.426;2022-07-21T04:45:20;101638.06;;;23.06;100.00
54822;BME280;41299;43.546;16.426;2022-07-21T04:50:11;101634.56;;;23.06;100.00
54822;BME280;41299;43.546;16.426;2022-07-21T04:52:37;101644.81;;;23.15;100.00
54822;BME280;41299;43.546;16.426;2022-07-21T04:55:03;101639.22;;;23.24;100.00
54822;BME280;41299;43.546;16.426;2022-07-21T04:57:29;101638.38;;;23.24;100.00
54822;BME280;41299;43.546;16.426;2022-07-21T04:59:54;101640.03;;;23.26;100.00
54822;BME280;41299;43.546;16.426;2022-07-21T05:02:19;101636.41;;;23.31;100.00
54822;BME280;41299;43.546;16.426;2022-07-21T05:04:45;101638.72;;;23.40;100.00
54822;BME280;41299;43.546;16.426;2022-07-21T05:07:10;101642.06;;;23.45;100.00
54822;BME280;41299;43.546;16.426;2022-07-21T05:09:36;101643.72;;;23.48;100.00
54822;BME280;41299;43.546;16.426;2022-07-21T05:12:01;101641.81;;;23.53;100.00
54822;BME280;41299;43.546;16.426;2022-07-21T05:14:27;101646.91;;;23.58;100.00
54822;BME280;41299;43.546;16.426;2022-07-21T05:16:52;101643.16;;;23.65;100.00
54822;BME280;41299;43.546;16.426;2022-07-21T05:19:18;101653.53;;;23.70;100.00
54822;BME280;41299;43.546;16.426;2022-07-21T05:21:43;101641.84;;;23.77;100.00
54822;BME280;41299;43.546;16.426;2022-07-21T05:24:10;101647.75;;;23.84;100.00
54822;BME280;41299;43.546;16.426;2022-07-21T05:26:36;101648.38;;;23.90;100.00
54822;BME280;41299;43.546;16.426;2022-07-21T05:29:02;101642.03;;;23.96;100.00
54822;BME280;41299;43.546;16.426;2022-07-21T05:31:27;101652.25;;;24.05;100.00
54822;BME280;41299;43.546;16.426;2022-07-21T05:33:53;101649.47;;;24.10;100.00
54822;BME280;41299;43.546;16.426;2022-07-21T05:36:18;101649.25;;;24.16;100.00
54822;BME280;41299;43.546;16.426;2022-07-21T05:38:44;101648.94;;;24.24;100.00
54822;BME280;41299;43.546;16.426;2022-07-21T05:41:09;101645.06;;;24.35;100.00
54822;BME280;41299;43.546;16.426;2022-07-21T05:43:35;101644.88;;;24.39;100.00
54822;BME280;41299;43.546;16.426;2022-07-21T05:46:00;101650.63;;;24.49;100.00
54822;BME280;41299;43.546;16.426;2022-07-21T05:48:26;101644.41;;;24.74;100.00
54822;BME280;41299;43.546;16.426;2022-07-21T05:50:51;101656.81;;;25.79;100.00
54822;BME280;41299;43.546;16.426;2022-07-21T05:53:17;101655.19;;;26.72;100.00
54822;BME280;41299;43.546;16.426;2022-07-21T05:55:42;101647.44;;;27.42;100.00
54822;BME280;41299;43.546;16.426;2022-07-21T05:58:08;101656.16;;;27.95;100.00
54822;BME280;41299;43.546;16.426;2022-07-21T06:00:33;101662.75;;;28.04;100.00
54822;BME280;41299;43.546;16.426;2022-07-21T06:02:59;101662.72;;;28.38;100.00
54822;BME280;41299;43.546;16.426;2022-07-21T06:05:24;101668.88;;;28.70;100.00
54822;BME280;41299;43.546;16.426;2022-07-21T06:07:49;101669.50;;;29.06;100.00
54822;BME280;41299;43.546;16.426;2022-07-21T06:10:15;101664.91;;;29.55;97.36
54822;BME280;41299;43.546;16.426;2022-07-21T06:12:41;101662.81;;;30.04;91.84
54822;BME280;41299;43.546;16.426;2022-07-21T06:15:07;101667.84;;;30.38;87.74
54822;BME280;41299;43.546;16.426;2022-07-21T06:17:40;101669.63;;;30.37;89.54
54822;BME280;41299;43.546;16.426;2022-07-21T06:20:07;101676.31;;;29.72;96.73
54822;BME280;41299;43.546;16.426;2022-07-21T06:22:33;101669.06;;;29.14;100.00
54822;BME280;41299;43.546;16.426;2022-07-21T06:24:58;101669.38;;;28.77;100.00
54822;BME280;41299;43.546;16.426;2022-07-21T06:27:24;101667.88;;;28.41;100.00
54822;BME280;41299;43.546;16.426;2022-07-21T06:29:49;101667.84;;;28.25;100.00
54822;BME280;41299;43.546;16.426;2022-07-21T06:32:15;101666.19;;;28.06;100.00
54822;BME280;41299;43.546;16.426;2022-07-21T06:34:40;101665.56;;;28.01;100.00
54822;BME280;41299;43.546;16.426;2022-07-21T06:37:05;101663.00;;;27.99;100.00
54822;BME280;41299;43.546;16.426;2022-07-21T06:39:31;101659.56;;;27.97;100.00
54822;BME280;41299;43.546;16.426;2022-07-21T06:41:56;101660.13;;;28.04;100.00
54822;BME280;41299;43.546;16.426;2022-07-21T06:44:22;101661.91;;;28.03;100.00
54822;BME280;41299;43.546;16.426;2022-07-21T06:46:50;101659.44;;;28.00;100.00
54822;BME280;41299;43.546;16.426;2022-07-21T06:49:15;101658.19;;;27.90;96.24
54822;BME280;41299;43.546;16.426;2022-07-21T06:51:41;101654.81;;;28.04;98.85
54822;BME280;41299;43.546;16.426;2022-07-21T06:54:06;101657.38;;;28.22;100.00
54822;BME280;41299;43.546;16.426;2022-07-21T06:56:31;101654.16;;;28.32;100.00
54822;BME280;41299;43.546;16.426;2022-07-21T06:58:57;101656.03;;;28.46;96.06
54822;BME280;41299;43.546;16.426;2022-07-21T07:01:22;101662.56;;;28.57;86.72
54822;BME280;41299;43.546;16.426;2022-07-21T07:03:48;101656.63;;;28.68;94.53
54822;BME280;41299;43.546;16.426;2022-07-21T07:06:13;101662.13;;;28.65;95.23
54822;BME280;41299;43.546;16.426;2022-07-21T07:08:39;101659.97;;;28.55;93.21
54822;BME280;41299;43.546;16.426;2022-07-21T07:11:05;101660.31;;;28.49;100.00
54822;BME280;41299;43.546;16.426;2022-07-21T07:13:30;101666.66;;;28.46;100.00
54822;BME280;41299;43.546;16.426;2022-07-21T07:15:56;101661.03;;;28.37;100.00
54822;BME280;41299;43.546;16.426;2022-07-21T07:18:22;101666.47;;;28.33;100.00
54822;BME280;41299;43.546;16.426;2022-07-21T07:20:49;101663.94;;;28.48;97.32
54822;BME280;41299;43.546;16.426;2022-07-21T07:23:14;101662.88;;;28.67;88.08
54822;BME280;41299;43.546;16.426;2022-07-21T07:25:39;101667.22;;;28.84;95.01
54822;BME280;41299;43.546;16.426;2022-07-21T07:28:05;101664.94;;;28.94;93.01
54822;BME280;41299;43.546;16.426;2022-07-21T07:30:32;101656.69;;;28.98;100.00
54822;BME280;41299;43.546;16.426;2022-07-21T07:32:57;101662.34;;;29.08;100.00
54822;BME280;41299;43.546;16.426;2022-07-21T07:35:22;101660.94;;;29.17;100.00
54822;BME280;41299;43.546;16.426;2022-07-21T07:37:48;101663.31;;;29.22;100.00
54822;BME280;41299;43.546;16.426;2022-07-21T07:40:17;101656.53;;;29.02;100.00
54822;BME280;41299;43.546;16.426;2022-07-21T07:42:44;101650.94;;;29.06;100.00
54822;BME280;41299;43.546;16.426;2022-07-21T07:45:11;101656.53;;;29.16;100.00
54822;BME280;41299;43.546;16.426;2022-07-21T07:47:37;101665.22;;;29.20;90.83
54822;BME280;41299;43.546;16.426;2022-07-21T07:50:05;101659.63;;;29.39;97.28
54822;BME280;41299;43.546;16.426;2022-07-21T07:52:32;101666.56;;;29.42;100.00
54822;BME280;41299;43.546;16.426;2022-07-21T07:54:57;101654.66;;;29.49;95.90
54822;BME280;41299;43.546;16.426;2022-07-21T07:57:23;101650.00;;;29.67;93.00
54822;BME280;41299;43.546;16.426;2022-07-21T07:59:48;101647.44;;;29.80;90.56
54822;BME280;41299;43.546;16.426;2022-07-21T08:02:13;101646.31;;;29.84;90.92
54822;BME280;41299;43.546;16.426;2022-07-21T08:04:39;101652.78;;;29.80;94.09
54822;BME280;41299;43.546;16.426;2022-07-21T08:07:06;101652.00;;;29.92;87.33
54822;BME280;41299;43.546;16.426;2022-07-21T08:09:31;101651.63;;;29.84;84.24
54822;BME280;41299;43.546;16.426;2022-07-21T08:11:57;101651.91;;;29.79;98.82
54822;BME280;41299;43.546;16.426;2022-07-21T08:14:22;101642.50;;;29.88;95.58
54822;BME280;41299;43.546;16.426;2022-07-21T08:16:48;101650.13;;;29.95;88.04
54822;BME280;41299;43.546;16.426;2022-07-21T08:19:13;101641.66;;;29.88;93.34
54822;BME280;41299;43.546;16.426;2022-07-21T08:21:39;101644.97;;;29.91;85.80
54822;BME280;41299;43.546;16.426;2022-07-21T08:24:05;101653.13;;;30.03;83.20
54822;BME280;41299;43.546;16.426;2022-07-21T08:26:30;101654.09;;;30.16;87.23
54822;BME280;41299;43.546;16.426;2022-07-21T08:28:57;101643.72;;;30.26;71.52
54822;BME280;41299;43.546;16.426;2022-07-21T08:31:23;101646.75;;;30.35;60.12
54822;BME280;41299;43.546;16.426;2022-07-21T08:33:49;101652.31;;;30.44;54.40
54822;BME280;41299;43.546;16.426;2022-07-21T08:36:15;101654.38;;;30.54;50.60
54822;BME280;41299;43.546;16.426;2022-07-21T08:38:40;101650.34;;;30.61;49.06
54822;BME280;41299;43.546;16.426;2022-07-21T08:41:06;101655.41;;;30.66;50.56
54822;BME280;41299;43.546;16.426;2022-07-21T08:43:34;101646.72;;;30.77;46.65
54822;BME280;41299;43.546;16.426;2022-07-21T08:45:59;101652.78;;;30.79;46.76
54822;BME280;41299;43.546;16.426;2022-07-21T08:48:25;101649.31;;;30.91;47.22
54822;BME280;41299;43.546;16.426;2022-07-21T08:50:51;101647.19;;;30.96;47.02
54822;BME280;41299;43.546;16.426;2022-07-21T08:53:17;101645.84;;;31.04;45.46
54822;BME280;41299;43.546;16.426;2022-07-21T08:55:43;101655.84;;;31.13;45.83
54822;BME280;41299;43.546;16.426;2022-07-21T08:58:10;101652.34;;;31.25;46.61
54822;BME280;41299;43.546;16.426;2022-07-21T09:00:38;101655.38;;;31.34;48.04
54822;BME280;41299;43.546;16.426;2022-07-21T09:03:17;101652.81;;;31.45;46.25
54822;BME280;41299;43.546;16.426;2022-07-21T09:06:13;101650.69;;;31.50;44.06
54822;BME280;41299;43.546;16.426;2022-07-21T09:13:42;101645.22;;;31.65;41.69
54822;BME280;41299;43.546;16.426;2022-07-21T09:16:08;101652.25;;;31.79;40.02
54822;BME280;41299;43.546;16.426;2022-07-21T09:18:34;101655.38;;;31.86;40.43
54822;BME280;41299;43.546;16.426;2022-07-21T09:21:11;101653.00;;;31.94;38.65
54822;BME280;41299;43.546;16.426;2022-07-21T09:23:36;101648.09;;;32.01;38.56
54822;BME280;41299;43.546;16.426;2022-07-21T09:26:02;101650.94;;;32.11;36.90
54822;BME280;41299;43.546;16.426;2022-07-21T09:28:30;101646.13;;;32.16;37.07
54822;BME280;41299;43.546;16.426;2022-07-21T09:31:03;101646.44;;;32.24;35.28
54822;BME280;41299;43.546;16.426;2022-07-21T09:38:33;101634.22;;;32.46;35.04
54822;BME280;41299;43.546;16.426;2022-07-21T09:41:07;101642.75;;;32.63;35.71
54822;BME280;41299;43.546;16.426;2022-07-21T09:46:10;101636.53;;;32.75;35.61
54822;BME280;41299;43.546;16.426;2022-07-21T09:48:38;101637.03;;;32.80;34.49
54822;BME280;41299;43.546;16.426;2022-07-21T09:54:00;101631.53;;;33.06;33.38
54822;BME280;41299;43.546;16.426;2022-07-21T09:56:29;101631.81;;;33.15;34.13
54822;BME280;41299;43.546;16.426;2022-07-21T09:58:56;101628.03;;;33.17;32.29
54822;BME280;41299;43.546;16.426;2022-07-21T10:01:22;101624.75;;;33.25;31.37
54822;BME280;41299;43.546;16.426;2022-07-21T10:03:49;101626.72;;;33.34;30.88
54822;BME280;41299;43.546;16.426;2022-07-21T10:06:17;101619.69;;;33.45;29.87
54822;BME280;41299;43.546;16.426;2022-07-21T10:08:43;101619.31;;;33.49;29.10
54822;BME280;41299;43.546;16.426;2022-07-21T10:11:10;101615.09;;;33.58;29.31
54822;BME280;41299;43.546;16.426;2022-07-21T10:13:37;101616.94;;;33.69;28.89
54822;BME280;41299;43.546;16.426;2022-07-21T10:16:02;101612.53;;;33.68;28.71
54822;BME280;41299;43.546;16.426;2022-07-21T10:18:34;101614.84;;;33.73;29.42
54822;BME280;41299;43.546;16.426;2022-07-21T10:21:29;101611.56;;;33.69;28.94
54822;BME280;41299;43.546;16.426;2022-07-21T10:23:56;101610.81;;;33.67;29.40
54822;BME280;41299;43.546;16.426;2022-07-21T10:26:22;101608.28;;;33.65;29.49
54822;BME280;41299;43.546;16.426;2022-07-21T10:28:47;101610.69;;;33.80;30.51
54822;BME280;41299;43.546;16.426;2022-07-21T10:31:21;101603.03;;;33.98;30.41
54822;BME280;41299;43.546;16.426;2022-07-21T10:36:38;101609.31;;;34.09;31.07
54822;BME280;41299;43.546;16.426;2022-07-21T10:41:38;101615.66;;;34.08;31.60
54822;BME280;41299;43.546;16.426;2022-07-21T10:55:21;101606.31;;;33.90;39.09
54822;BME280;41299;43.546;16.426;2022-07-21T10:58:27;101606.16;;;34.03;40.53
54822;BME280;41299;43.546;16.426;2022-07-21T11:03:37;101600.19;;;34.11;44.42
54822;BME280;41299;43.546;16.426;2022-07-21T11:08:39;101590.66;;;34.30;48.46
54822;BME280;41299;43.546;16.426;2022-07-21T11:22:26;101581.38;;;34.34;44.29
54822;BME280;41299;43.546;16.426;2022-07-21T11:25:04;101589.63;;;34.42;45.47
54822;BME280;41299;43.546;16.426;2022-07-21T11:27:36;101589.72;;;34.52;43.11
54822;BME280;41299;43.546;16.426;2022-07-21T11:30:06;101585.13;;;34.43;45.31
54822;BME280;41299;43.546;16.426;2022-07-21T11:32:32;101592.19;;;34.44;42.28
54822;BME280;41299;43.546;16.426;2022-07-21T11:35:03;101579.97;;;34.51;40.57
54822;BME280;41299;43.546;16.426;2022-07-21T11:39:55;101579.97;;;34.51;42.67
54822;BME280;41299;43.546;16.426;2022-07-21T11:42:20;101577.66;;;34.25;42.19
54822;BME280;41299;43.546;16.426;2022-07-21T11:44:46;101577.22;;;34.41;45.17
54822;BME280;41299;43.546;16.426;2022-07-21T11:47:13;101569.84;;;34.55;42.71
54822;BME280;41299;43.546;16.426;2022-07-21T11:49:40;101559.16;;;34.76;41.01
54822;BME280;41299;43.546;16.426;2022-07-21T11:52:14;101559.84;;;34.90;38.02
54822;BME280;41299;43.546;16.426;2022-07-21T11:54:48;101561.16;;;34.74;36.70
54822;BME280;41299;43.546;16.426;2022-07-21T11:57:16;101554.66;;;34.77;38.29
54822;BME280;41299;43.546;16.426;2022-07-21T11:59:43;101562.88;;;34.85;38.25
54822;BME280;41299;43.546;16.426;2022-07-21T12:02:11;101562.50;;;34.90;41.23
54822;BME280;41299;43.546;16.426;2022-07-21T12:07:30;101561.66;;;34.68;39.33
54822;BME280;41299;43.546;16.426;2022-07-21T12:10:01;101555.97;;;34.82;37.97
54822;BME280;41299;43.546;16.426;2022-07-21T12:12:39;101559.31;;;34.96;37.68
54822;BME280;41299;43.546;16.426;2022-07-21T12:15:23;101545.91;;;34.96;35.38
54822;BME280;41299;43.546;16.426;2022-07-21T12:17:58;101555.16;;;35.13;34.86
54822;BME280;41299;43.546;16.426;2022-07-21T12:22:59;101543.66;;;35.22;33.26
54822;BME280;41299;43.546;16.426;2022-07-21T12:25:39;101538.00;;;34.94;31.67
54822;BME280;41299;43.546;16.426;2022-07-21T12:28:06;101536.41;;;35.13;32.63
54822;BME280;41299;43.546;16.426;2022-07-21T12:30:39;101541.13;;;35.31;33.70
54822;BME280;41299;43.546;16.426;2022-07-21T12:33:16;101541.22;;;35.50;33.14
54822;BME280;41299;43.546;16.426;2022-07-21T12:35:44;101534.56;;;35.55;32.41
54822;BME280;41299;43.546;16.426;2022-07-21T12:38:13;101533.91;;;35.62;32.51
54822;BME280;41299;43.546;16.426;2022-07-21T12:40:42;101528.41;;;35.74;33.27
54822;BME280;41299;43.546;16.426;2022-07-21T12:45:49;101528.53;;;35.62;36.26
54822;BME280;41299;43.546;16.426;2022-07-21T12:48:21;101529.63;;;35.60;38.22
54822;BME280;41299;43.546;16.426;2022-07-21T12:53:49;101533.81;;;35.33;39.09
54822;BME280;41299;43.546;16.426;2022-07-21T12:56:26;101531.25;;;35.31;39.25
54822;BME280;41299;43.546;16.426;2022-07-21T12:58:53;101525.59;;;35.24;46.32
54822;BME280;41299;43.546;16.426;2022-07-21T13:01:20;101519.81;;;34.98;51.29
54822;BME280;41299;43.546;16.426;2022-07-21T13:03:46;101523.16;;;34.90;50.91
54822;BME280;41299;43.546;16.426;2022-07-21T13:06:12;101528.13;;;34.74;53.61
54822;BME280;41299;43.546;16.426;2022-07-21T13:08:43;101526.38;;;34.84;58.97
54822;BME280;41299;43.546;16.426;2022-07-21T13:11:10;101520.59;;;34.89;54.66
54822;BME280;41299;43.546;16.426;2022-07-21T13:13:37;101527.47;;;34.81;54.65
54822;BME280;41299;43.546;16.426;2022-07-21T13:16:03;101517.78;;;34.90;54.23
54822;BME280;41299;43.546;16.426;2022-07-21T13:18:28;101519.47;;;34.91;53.07
54822;BME280;41299;43.546;16.426;2022-07-21T13:20:54;101521.22;;;34.92;51.09
54822;BME280;41299;43.546;16.426;2022-07-21T13:23:20;101515.00;;;34.92;51.76
54822;BME280;41299;43.546;16.426;2022-07-21T13:25:46;101517.16;;;34.77;50.82
54822;BME280;41299;43.546;16.426;2022-07-21T13:28:13;101512.78;;;34.76;50.46
54822;BME280;41299;43.546;16.426;2022-07-21T13:30:39;101512.63;;;34.77;49.93
54822;BME280;41299;43.546;16.426;2022-07-21T13:33:05;101511.06;;;34.75;51.25
54822;BME280;41299;43.546;16.426;2022-07-21T13:35:31;101506.44;;;34.77;49.76
54822;BME280;41299;43.546;16.426;2022-07-21T13:37:57;101509.53;;;34.72;51.79
54822;BME280;41299;43.546;16.426;2022-07-21T13:40:24;101513.63;;;34.76;57.42